Drobaksund III — LKJO — position and weather

sailwx.info

Track history (hours):
 
Tides and Currents Weather Stations Pressure Air Temp Water Temp Dewpoint Dewpoint Depression Visibility Wind Speed Wind Dir Waves Ship Positions

Drobaksund III

Last reported at 2014-Oct-10 18:05 UTC. Time now 2014-Oct-31 09:51 UTC.
Position N 38°51' E 000°07'.
Warning: this ship's position is 20 days out of date.

Length 57 m; draft 3 m.

Type: Ship (hazmat cat A). MMSI: 257235400.

Date/timePositionNaut miles runAvg speedWind from/ knotsBaromVisibWave heightAir tempDewpointWater temp
2014-Oct-10 18:05N 38°51' E 000°07'0 0.0
2014-Oct-10 17:31N 38°51' E 000°07'0 0.0
2014-Oct-10 16:33N 38°51' E 000°07'0 0.0
2014-Oct-10 15:29N 38°51' E 000°07'0 0.0
2014-Oct-10 14:33N 38°51' E 000°07'0 0.0
2014-Oct-10 05:14N 38°51' E 000°07'0 0.0
2014-Oct-09 20:31N 38°51' E 000°07'0 0.0
2014-Oct-09 19:33N 38°51' E 000°07'0 0.0
2014-Oct-09 18:33N 38°51' E 000°07'0 0.0
2014-Oct-09 17:33N 38°51' E 000°07'0 0.0
2014-Oct-09 16:21N 38°51' E 000°07'0 0.0
2014-Oct-08 17:34N 38°51' E 000°07'0 0.0
2014-Oct-08 16:33N 38°51' E 000°07'0 0.0
2014-Oct-08 15:33N 38°51' E 000°07'0 0.0
2014-Oct-08 14:29N 38°51' E 000°07'0 0.0
2014-Oct-07 18:26N 38°51' E 000°07'0 0.0
2014-Oct-07 14:33N 38°51' E 000°07'73 2.8
2014-Oct-06 12:28N 37°43' W 000°27'4 3.5
2014-Oct-06 11:26N 37°40' W 000°29'7 7.6
2014-Oct-06 10:32N 37°34' W 000°34'7 7.2
2014-Oct-06 09:33N 37°31' W 000°42'8 7.8
2014-Oct-06 08:33N 37°33' W 000°52'  
Track history (hours):
 
Tides and Currents Weather Stations Pressure Air Temp Water Temp Dewpoint Dewpoint Depression Visibility Wind Speed Wind Dir Waves Ship Positions

Drobaksund III

Last reported at 2014-Oct-10 18:05 UTC. Time now 2014-Oct-31 09:51 UTC.
Position N 38°51' E 000°07'.
Warning: this ship's position is 20 days out of date.

Length 57 m; draft 3 m.

Type: Ship (hazmat cat A). MMSI: 257235400.

Date/timePositionNaut miles runAvg speedWind from/ knotsBaromVisibWave heightAir tempDewpointWater temp
2014-Oct-10 18:05N 38°51' E 000°07'0 0.0
2014-Oct-10 17:31N 38°51' E 000°07'0 0.0
2014-Oct-10 16:33N 38°51' E 000°07'0 0.0
2014-Oct-10 15:29N 38°51' E 000°07'0 0.0
2014-Oct-10 14:33N 38°51' E 000°07'0 0.0
2014-Oct-10 05:14N 38°51' E 000°07'0 0.0
2014-Oct-09 20:31N 38°51' E 000°07'0 0.0
2014-Oct-09 19:33N 38°51' E 000°07'0 0.0
2014-Oct-09 18:33N 38°51' E 000°07'0 0.0
2014-Oct-09 17:33N 38°51' E 000°07'0 0.0
2014-Oct-09 16:21N 38°51' E 000°07'0 0.0
2014-Oct-08 17:34N 38°51' E 000°07'0 0.0
2014-Oct-08 16:33N 38°51' E 000°07'0 0.0
2014-Oct-08 15:33N 38°51' E 000°07'0 0.0
2014-Oct-08 14:29N 38°51' E 000°07'0 0.0
2014-Oct-07 18:26N 38°51' E 000°07'0 0.0
2014-Oct-07 14:33N 38°51' E 000°07'73 2.8
2014-Oct-06 12:28N 37°43' W 000°27'4 3.5
2014-Oct-06 11:26N 37°40' W 000°29'7 7.6
2014-Oct-06 10:32N 37°34' W 000°34'7 7.2
2014-Oct-06 09:33N 37°31' W 000°42'8 7.8
2014-Oct-06 08:33N 37°33' W 000°52'  

Dump ship's entire track history